KECP

Northwest Florida Beaches International Airport

Panama City, Florida, USA
KECP 211728Z 2118/2218 21010KT P6SM SCT040 FM220100 24007KT P6SM SCT250 FM221300 26008KT P6SM SCT020
Issued Valid From Valid To
Jun-21 @ 17:28 UTC
(39 minutes ago)
Jun-21 @ 18:00 UTC
(7 minutes ago)
Jun-22 @ 18:00 UTC
(in 24 hours)
Jun-21 @ 18:00 to Jun-22 @ 01:00
KECP 211728Z 2118/2218 21010KT P6SM SCT040
Wind Visibility Clouds
210° at 10 knots Greater than 6 miles
  • Scattered at 4,000' AGL
From Jun-22 @ 01:00 to Jun-22 @ 13:00
FM220100 24007KT P6SM SCT250
Wind Visibility Clouds
240° at 7 knots Greater than 6 miles
  • Scattered at 25,000' AGL
From Jun-22 @ 13:00 to Jun-22 @ 18:00
FM221300 26008KT P6SM SCT020
Wind Visibility Clouds
260° at 8 knots Greater than 6 miles
  • Scattered at 2,000' AGL
KECP 211728Z 2118/2218 21010KT P6SM SCT040 FM220100 24007KT P6SM SCT250 FM221300 26008KT P6SM SCT020
Issued Jun-21 @ 17:28 UTC
(39 minutes ago)
Valid From Jun-21 @ 18:00 UTC
(7 minutes ago)
Valid To Jun-22 @ 18:00 UTC
(in 24 hours)
Jun-21 @ 18:00 - Jun-22 @ 01:00
Wind Visibility
210° at 10 knots Greater than 6 miles
Clouds
  • Scattered at 4,000' AGL
From Jun-22 @ 01:00 - Jun-22 @ 13:00
Wind Visibility
240° at 7 knots Greater than 6 miles
Clouds
  • Scattered at 25,000' AGL
From Jun-22 @ 13:00 - Jun-22 @ 18:00
Wind Visibility
260° at 8 knots Greater than 6 miles
Clouds
  • Scattered at 2,000' AGL